Time;durP1;ratioP1;P1;durP2;ratioP2;P2;SDS_P1;SDS_P2;PMS_P1;PMS_P2;Temp;Humidity;BMP_temperature;BMP_pressure;BME280_temperature;BME280_humidity;BME280_pressure;Samples;Min_cycle;Max_cycle;Signal;HPM_P1;HPM_P2
2021/09/04 00:00:09;;;;;;;21.90;9.63;;;;;;;19.44;65.64;100890.00;5015212;28;20069;-92
2021/09/04 00:02:34;;;;;;;21.80;9.43;;;;;;;19.31;66.02;100883.22;5014664;28;20415;-92
2021/09/04 00:04:59;;;;;;;19.83;10.07;;;;;;;19.28;65.99;100880.84;5014725;28;20025;-91
2021/09/04 00:07:28;;;;;;;23.20;10.60;;;;;;;19.14;66.85;100882.19;5014574;28;20026;-92
2021/09/04 00:09:53;;;;;;;16.48;10.82;;;;;;;19.11;67.05;100878.97;5022670;28;20044;-90
2021/09/04 00:12:19;;;;;;;18.08;8.82;;;;;;;19.06;67.21;100876.75;5016977;28;20030;-92
2021/09/04 00:14:44;;;;;;;23.00;10.15;;;;;;;19.14;67.08;100871.53;5014888;28;20034;-91
2021/09/04 00:17:10;;;;;;;18.23;10.23;;;;;;;19.11;66.75;100863.00;5014801;28;20022;-92
2021/09/04 00:19:37;;;;;;;20.10;10.73;;;;;;;19.15;66.65;100872.34;4997325;28;20469;-91
2021/09/04 00:22:03;;;;;;;22.90;11.70;;;;;;;18.94;67.20;100867.31;5014415;28;20037;-91
2021/09/04 00:24:28;;;;;;;29.10;10.88;;;;;;;19.09;66.71;100870.28;5014552;28;20388;-91
2021/09/04 00:26:54;;;;;;;20.83;10.38;;;;;;;19.09;66.52;100876.44;5014377;28;20036;-91
2021/09/04 00:29:19;;;;;;;19.23;10.75;;;;;;;19.06;66.69;100868.78;5014472;28;20108;-92
2021/09/04 00:31:44;;;;;;;20.35;10.40;;;;;;;19.00;66.54;100869.38;5014070;28;20026;-92
2021/09/04 00:34:10;;;;;;;27.02;10.93;;;;;;;19.01;66.57;100868.38;5014604;28;20057;-91
2021/09/04 00:36:35;;;;;;;21.40;11.50;;;;;;;18.90;67.13;100864.09;5014083;28;20528;-92
2021/09/04 00:39:01;;;;;;;21.48;13.75;;;;;;;18.85;67.40;100863.69;5014368;28;20029;-91
2021/09/04 00:41:26;;;;;;;29.02;14.68;;;;;;;18.86;67.68;100861.84;5014144;28;20531;-92
2021/09/04 00:43:51;;;;;;;30.27;14.60;;;;;;;18.63;68.62;100860.38;5014360;28;20105;-91
2021/09/04 00:46:17;;;;;;;24.30;15.00;;;;;;;18.85;67.87;100858.38;5013929;28;20546;-91
2021/09/04 00:48:42;;;;;;;28.58;15.68;;;;;;;18.84;67.95;100851.38;5014223;28;20464;-91
2021/09/04 00:51:08;;;;;;;26.20;15.55;;;;;;;18.72;68.54;100857.81;5013824;28;20068;-90
2021/09/04 00:53:34;;;;;;;24.33;15.15;;;;;;;18.73;68.63;100848.88;4996319;28;20054;-92
2021/09/04 00:56:00;;;;;;;24.48;15.32;;;;;;;18.71;68.84;100853.50;5000775;28;20416;-91
2021/09/04 00:58:26;;;;;;;30.40;16.50;;;;;;;18.87;68.26;100855.56;5019085;28;20026;-91
2021/09/04 01:00:53;;;;;;;26.15;15.50;;;;;;;18.87;68.07;100852.91;5013438;28;20113;-91
2021/09/04 01:03:19;;;;;;;33.33;15.50;;;;;;;18.87;67.81;100856.41;5014023;28;20026;-91
2021/09/04 01:05:48;;;;;;;30.85;14.55;;;;;;;18.86;68.20;100846.75;5013575;28;20396;-91
2021/09/04 01:08:13;;;;;;;29.10;13.32;;;;;;;18.79;68.05;100848.28;5013310;28;20033;-91
2021/09/04 01:10:39;;;;;;;35.38;13.55;;;;;;;18.86;67.78;100846.75;5013468;28;20161;-91
2021/09/04 01:13:04;;;;;;;23.75;12.50;;;;;;;18.86;67.55;100844.09;5013251;28;20079;-91
2021/09/04 01:15:30;;;;;;;22.13;13.20;;;;;;;18.79;67.97;100851.81;5013606;28;20499;-91
2021/09/04 01:18:00;;;;;;;26.70;12.60;;;;;;;18.81;67.30;100852.50;5013272;28;20037;-91
2021/09/04 01:20:25;;;;;;;22.15;12.93;;;;;;;18.65;67.67;100849.59;4995913;28;20112;-91
2021/09/04 01:22:50;;;;;;;26.05;13.10;;;;;;;18.59;68.34;100845.69;5013155;28;20476;-91
2021/09/04 01:25:23;;;;;;;20.25;12.27;;;;;;;18.62;68.30;100842.75;5013013;28;20029;-91
2021/09/04 01:27:49;;;;;;;30.83;13.32;;;;;;;18.45;69.05;100845.34;5013300;28;20030;-91
2021/09/04 01:30:14;;;;;;;20.20;12.85;;;;;;;18.36;69.62;100850.53;4995432;28;20044;-91
2021/09/04 01:32:40;;;;;;;23.90;11.70;;;;;;;18.23;70.27;100856.16;5012979;28;20037;-91
2021/09/04 01:35:08;;;;;;;20.60;12.07;;;;;;;18.36;70.35;100849.69;5013088;28;20030;-91
2021/09/04 01:37:33;;;;;;;25.20;12.48;;;;;;;18.27;71.30;100853.22;5012750;28;20061;-91
2021/09/04 01:39:59;;;;;;;20.33;11.30;;;;;;;18.38;70.88;100850.38;5013089;28;20045;-90
2021/09/04 01:42:24;;;;;;;23.30;12.13;;;;;;;18.30;71.16;100845.78;5012564;28;20025;-91
2021/09/04 01:44:49;;;;;;;18.23;11.20;;;;;;;18.43;70.93;100845.47;5013114;28;20029;-91
2021/09/04 01:47:15;;;;;;;24.38;12.60;;;;;;;18.40;70.92;100840.44;5012799;28;20037;-92
2021/09/04 01:49:40;;;;;;;18.08;10.63;;;;;;;18.46;70.28;100836.38;5012965;28;20030;-90
2021/09/04 01:52:06;;;;;;;22.27;11.65;;;;;;;18.45;70.28;100838.19;5012460;28;20073;-91
2021/09/04 01:54:31;;;;;;;31.65;15.27;;;;;;;18.41;71.19;100840.31;5012994;28;20034;-92
2021/09/04 01:57:02;;;;;;;30.95;16.67;;;;;;;18.56;70.83;100839.81;5012309;28;20044;-91
2021/09/04 01:59:27;;;;;;;36.08;14.90;;;;;;;18.59;70.93;100835.06;5012856;28;20028;-91
2021/09/04 02:01:53;;;;;;;34.55;15.40;;;;;;;18.58;70.76;100836.06;5012571;28;20029;-91
2021/09/04 02:04:19;;;;;;;29.33;15.90;;;;;;;18.48;71.11;100829.09;5012818;28;20036;-91
2021/09/04 02:06:44;;;;;;;27.63;16.40;;;;;;;18.44;71.51;100831.19;5012138;28;20030;-91
2021/09/04 02:09:09;;;;;;;33.58;16.00;;;;;;;18.52;71.23;100830.47;5012610;28;20104;-91
2021/09/04 02:11:35;;;;;;;33.13;17.27;;;;;;;18.34;71.67;100828.56;5012409;28;20050;-91
2021/09/04 02:14:01;;;;;;;29.98;16.30;;;;;;;18.46;71.59;100831.06;5012697;28;20105;-91
2021/09/04 02:16:26;;;;;;;32.03;16.52;;;;;;;18.53;70.98;100832.16;4992919;28;20026;-91
2021/09/04 02:18:52;;;;;;;32.55;16.13;;;;;;;18.69;70.38;100835.03;5011895;28;20088;-91
2021/09/04 02:21:17;;;;;;;29.83;15.52;;;;;;;18.77;69.67;100834.28;5012071;28;20060;-91
2021/09/04 02:23:42;;;;;;;29.98;14.38;;;;;;;18.88;69.32;100833.28;5012600;28;20042;-91
2021/09/04 02:26:08;;;;;;;33.33;16.05;;;;;;;18.86;69.39;100829.94;5012134;28;20104;-90
2021/09/04 02:28:33;;;;;;;30.67;16.08;;;;;;;18.78;69.37;100828.84;5012504;28;20118;-91
2021/09/04 02:30:59;;;;;;;29.23;16.52;;;;;;;18.62;69.74;100825.94;5011968;28;20030;-91
2021/09/04 02:33:24;;;;;;;28.17;16.30;;;;;;;18.60;69.71;100823.47;5012243;28;20373;-90
2021/09/04 02:35:49;;;;;;;29.58;16.08;;;;;;;18.82;68.88;100822.25;5011737;28;20490;-90
2021/09/04 02:38:15;;;;;;;29.23;15.57;;;;;;;18.79;68.85;100827.00;4994643;28;20037;-91
2021/09/04 02:40:40;;;;;;;29.88;15.38;;;;;;;18.60;69.32;100819.94;5011931;28;20033;-91
2021/09/04 02:43:06;;;;;;;28.88;14.85;;;;;;;18.48;69.56;100821.94;4994695;28;20018;-91
2021/09/04 02:45:31;;;;;;;28.67;14.43;;;;;;;18.65;69.16;100825.66;5011905;28;20030;-91
2021/09/04 02:47:56;;;;;;;37.22;14.73;;;;;;;18.58;68.93;100819.25;5012215;28;20045;-90
2021/09/04 02:50:22;;;;;;;28.52;13.95;;;;;;;18.54;69.12;100821.38;5011752;28;20073;-91
2021/09/04 02:52:47;;;;;;;24.75;14.60;;;;;;;18.51;69.12;100819.00;5011443;28;20468;-91
2021/09/04 02:55:12;;;;;;;26.48;14.05;;;;;;;18.45;69.19;100822.25;5011760;28;20046;-91
2021/09/04 02:57:38;;;;;;;23.55;13.70;;;;;;;18.55;69.26;100815.06;5012051;28;20034;-92
2021/09/04 03:00:04;;;;;;;28.58;13.13;;;;;;;18.53;68.93;100811.72;5011831;28;20033;-91
2021/09/04 03:02:30;;;;;;;28.85;13.43;;;;;;;18.42;69.35;100803.91;5012152;28;20041;-91
2021/09/04 03:04:55;;;;;;;25.40;13.00;;;;;;;18.50;68.95;100812.00;5011326;28;20105;-91
2021/09/04 03:07:20;;;;;;;24.52;12.90;;;;;;;18.81;67.65;100809.94;5011902;28;20088;-91
2021/09/04 03:09:46;;;;;;;31.42;14.57;;;;;;;18.69;68.15;100810.25;5011177;28;20109;-90
2021/09/04 03:12:11;;;;;;;21.13;12.38;;;;;;;18.68;68.15;100798.78;5011764;28;20479;-91
2021/09/04 03:14:38;;;;;;;25.33;12.55;;;;;;;18.77;67.58;100805.03;5011656;28;20472;-90
2021/09/04 03:17:04;;;;;;;28.55;13.50;;;;;;;18.65;68.27;100800.91;5011987;28;20022;-91
2021/09/04 03:19:29;;;;;;;31.10;13.65;;;;;;;18.48;68.58;100795.34;5011593;28;20044;-90
2021/09/04 03:21:54;;;;;;;25.15;12.15;;;;;;;18.70;67.91;100796.81;5011972;28;20030;-91
2021/09/04 03:24:20;;;;;;;25.52;13.10;;;;;;;18.53;68.26;100794.94;5011599;28;20032;-91
2021/09/04 03:26:45;;;;;;;22.52;12.13;;;;;;;18.64;68.14;100797.38;5011767;28;20116;-90
2021/09/04 03:29:10;;;;;;;24.45;12.15;;;;;;;18.65;68.22;100798.25;5011548;28;20037;-90
2021/09/04 03:31:36;;;;;;;22.80;11.40;;;;;;;18.63;68.21;100793.88;5014397;28;20530;-90
2021/09/04 03:34:01;;;;;;;28.65;13.40;;;;;;;18.71;67.66;100792.34;5015108;28;20022;-90
2021/09/04 03:36:26;;;;;;;24.15;11.05;;;;;;;18.93;66.59;100793.78;5015321;28;20450;-91
2021/09/04 03:38:52;;;;;;;23.70;12.40;;;;;;;18.91;66.47;100796.56;5015626;28;20054;-90
2021/09/04 03:41:17;;;;;;;26.77;13.02;;;;;;;18.88;66.37;100798.69;5015002;28;20084;-90
2021/09/04 03:43:42;;;;;;;29.67;12.82;;;;;;;18.92;65.90;100795.59;5015353;28;20040;-90
2021/09/04 03:46:08;;;;;;;25.63;13.13;;;;;;;18.99;66.03;100795.84;5014827;28;20034;-91
2021/09/04 03:48:34;;;;;;;24.27;12.25;;;;;;;18.74;66.58;100798.19;5015263;28;20022;-90
2021/09/04 03:50:59;;;;;;;26.25;12.85;;;;;;;18.51;67.73;100796.91;5014957;28;20465;-90
2021/09/04 03:53:25;;;;;;;31.23;13.20;;;;;;;18.53;67.66;100794.94;5015057;28;20084;-90
2021/09/04 03:55:50;;;;;;;24.98;12.93;;;;;;;18.34;68.50;100795.84;5014671;28;20439;-90
2021/09/04 03:58:15;;;;;;;25.30;13.15;;;;;;;18.40;68.17;100801.44;5015000;28;20025;-90
2021/09/04 04:00:40;;;;;;;19.85;10.82;;;;;;;18.71;67.26;100797.66;5014305;28;20030;-90
2021/09/04 04:03:06;;;;;;;29.65;13.10;;;;;;;18.73;67.11;100801.00;5014862;28;20026;-90
2021/09/04 04:05:31;;;;;;;20.35;11.98;;;;;;;18.81;66.42;100801.13;5014337;28;20026;-90
2021/09/04 04:07:57;;;;;;;21.58;11.90;;;;;;;18.73;66.83;100803.66;5014864;28;20036;-90
2021/09/04 04:10:22;;;;;;;20.73;11.95;;;;;;;18.56;67.68;100807.91;4996714;28;20028;-90
2021/09/04 04:12:47;;;;;;;24.52;12.93;;;;;;;18.68;66.87;100803.25;5014695;28;20041;-90
2021/09/04 04:15:13;;;;;;;21.65;11.63;;;;;;;18.71;67.00;100808.28;5014409;28;20049;-90
2021/09/04 04:17:38;;;;;;;27.60;14.30;;;;;;;18.36;67.90;100805.31;5014761;28;20018;-90
2021/09/04 04:20:04;;;;;;;25.95;12.73;;;;;;;18.52;67.44;100810.06;5014305;28;20022;-90
2021/09/04 04:22:29;;;;;;;23.63;12.73;;;;;;;18.64;66.97;100810.69;5014603;28;20025;-90
2021/09/04 04:24:55;;;;;;;26.10;12.98;;;;;;;18.79;66.32;100813.69;5014185;28;20038;-90
2021/09/04 04:27:20;;;;;;;26.60;11.77;;;;;;;18.73;66.16;100815.13;4996769;28;20038;-90
2021/09/04 04:29:45;;;;;;;24.23;11.43;;;;;;;18.79;66.37;100816.38;5014213;28;20014;-90
2021/09/04 04:32:12;;;;;;;20.55;11.43;;;;;;;18.83;66.04;100815.94;5014798;28;20033;-90
2021/09/04 04:34:37;;;;;;;18.52;10.40;;;;;;;18.69;66.47;100812.91;5013823;28;20080;-90
2021/09/04 04:37:03;;;;;;;23.30;11.68;;;;;;;18.72;66.34;100810.81;5014155;28;20034;-90
2021/09/04 04:39:28;;;;;;;27.63;13.00;;;;;;;18.70;66.38;100815.44;4996416;28;20029;-90
2021/09/04 04:41:53;;;;;;;22.08;12.25;;;;;;;18.76;65.97;100816.66;5013489;28;20030;-91
2021/09/04 04:44:19;;;;;;;25.13;11.75;;;;;;;18.76;65.82;100817.50;5013767;28;20033;-90
2021/09/04 04:46:44;;;;;;;21.95;11.90;;;;;;;18.65;66.32;100814.19;5013953;28;20026;-90
2021/09/04 04:49:09;;;;;;;25.20;11.43;;;;;;;18.73;66.33;100827.59;5013697;28;20057;-91
2021/09/04 04:51:36;;;;;;;22.17;11.63;;;;;;;18.75;65.72;100822.97;5013952;28;20026;-90
2021/09/04 04:54:03;;;;;;;21.77;11.35;;;;;;;18.72;65.73;100820.59;5013754;28;20512;-90
2021/09/04 04:56:28;;;;;;;20.50;10.75;;;;;;;18.74;65.44;100824.78;5013829;28;20392;-90
2021/09/04 04:58:54;;;;;;;21.77;12.05;;;;;;;18.74;65.64;100818.63;5013748;28;20046;-90
2021/09/04 05:01:19;;;;;;;21.45;11.57;;;;;;;18.74;65.30;100823.94;5013709;28;20081;-90
2021/09/04 05:03:44;;;;;;;25.23;12.05;;;;;;;18.73;65.36;100824.94;5013757;28;20165;-90
2021/09/04 05:06:10;;;;;;;22.48;11.40;;;;;;;18.66;65.43;100813.19;5013435;28;20132;-90
2021/09/04 05:08:35;;;;;;;17.35;9.93;;;;;;;18.68;65.45;100819.22;5013620;28;20045;-91
2021/09/04 05:11:00;;;;;;;21.90;10.57;;;;;;;18.66;65.65;100821.19;4995447;28;20391;-90
2021/09/04 05:13:26;;;;;;;20.40;11.52;;;;;;;18.62;65.36;100821.50;4996017;28;20430;-90
2021/09/04 05:15:51;;;;;;;26.70;11.93;;;;;;;18.58;65.43;100814.78;5013131;28;20431;-90
2021/09/04 05:18:17;;;;;;;21.33;11.95;;;;;;;18.56;65.45;100819.41;5013342;28;20476;-90
2021/09/04 05:20:43;;;;;;;22.23;11.07;;;;;;;18.52;65.43;100826.00;5013642;28;20037;-90
2021/09/04 05:23:09;;;;;;;22.40;11.98;;;;;;;18.51;65.45;100826.97;5013129;28;20105;-90
2021/09/04 05:25:34;;;;;;;22.23;11.02;;;;;;;18.12;66.67;100828.91;5013399;28;20109;-90
2021/09/04 05:27:59;;;;;;;19.45;10.52;;;;;;;18.34;66.18;100833.03;4995796;28;20164;-90
2021/09/04 05:30:25;;;;;;;22.20;10.68;;;;;;;18.41;65.40;100827.00;5013117;28;20041;-90
2021/09/04 05:32:51;;;;;;;22.80;11.75;;;;;;;18.52;65.44;100831.34;5013744;28;20304;-89
2021/09/04 05:35:16;;;;;;;21.55;10.85;;;;;;;18.42;66.07;100825.19;5012797;28;20040;-90
2021/09/04 05:37:42;;;;;;;21.90;10.95;;;;;;;18.35;65.65;100830.25;5013364;28;20029;-90
2021/09/04 05:40:08;;;;;;;31.67;11.13;;;;;;;18.29;66.57;100830.00;5012727;28;20032;-90
2021/09/04 05:42:34;;;;;;;20.80;11.27;;;;;;;18.32;66.70;100829.69;5013060;28;20034;-90
2021/09/04 05:44:59;;;;;;;19.95;10.85;;;;;;;18.38;66.29;100834.44;5012571;28;20084;-90
2021/09/04 05:47:24;;;;;;;17.40;10.48;;;;;;;18.35;66.42;100824.94;4995352;28;20026;-90
2021/09/04 05:49:50;;;;;;;24.38;12.43;;;;;;;18.30;66.02;100815.72;5012546;28;20072;-90
2021/09/04 05:52:15;;;;;;;19.42;10.85;;;;;;;18.35;65.84;100813.47;5012791;28;20100;-89
2021/09/04 05:54:40;;;;;;;18.88;10.05;;;;;;;18.41;65.80;100808.41;5011470;28;20445;-90
2021/09/04 05:57:06;;;;;;;18.63;10.05;;;;;;;18.35;65.97;100808.16;5012671;28;20025;-90
2021/09/04 05:59:31;;;;;;;20.63;10.25;;;;;;;18.15;66.01;100802.06;5012472;28;20041;-90
2021/09/04 06:01:56;;;;;;;20.52;10.73;;;;;;;18.05;66.38;100810.06;5012388;28;20034;-90
2021/09/04 06:04:22;;;;;;;16.95;10.25;;;;;;;18.01;66.49;100803.34;4994932;28;20025;-90
2021/09/04 06:06:47;;;;;;;17.35;9.82;;;;;;;18.16;65.98;100809.03;5012350;28;20423;-91
2021/09/04 06:09:13;;;;;;;20.83;10.13;;;;;;;17.88;66.39;100810.78;5012651;28;20447;-91
2021/09/04 06:11:38;;;;;;;19.05;9.52;;;;;;;18.30;65.27;100810.41;5012619;28;20412;-91
2021/09/04 06:14:05;;;;;;;19.08;9.20;;;;;;;18.16;65.18;100803.72;5012602;28;20077;-90
2021/09/04 06:16:31;;;;;;;17.27;8.95;;;;;;;18.15;65.09;100812.69;4994807;28;20041;-90
2021/09/04 06:18:56;;;;;;;21.05;9.07;;;;;;;18.20;65.00;100811.25;5012364;28;20464;-90
2021/09/04 06:21:21;;;;;;;18.33;9.05;;;;;;;18.06;65.22;100814.38;4994735;28;20485;-91
2021/09/04 06:23:47;;;;;;;15.50;7.90;;;;;;;18.36;64.41;100820.44;5012165;28;20069;-90
2021/09/04 06:26:12;;;;;;;23.80;10.07;;;;;;;18.31;64.70;100814.75;5012322;28;20025;-90
2021/09/04 06:28:38;;;;;;;25.25;9.50;;;;;;;17.93;65.75;100817.34;4980767;28;20026;-91
2021/09/04 06:31:03;;;;;;;18.40;9.02;;;;;;;18.21;64.67;100826.22;4992504;28;20030;-90
2021/09/04 06:33:28;;;;;;;17.52;8.45;;;;;;;18.29;64.45;100824.69;5004750;28;20025;-90
2021/09/04 06:35:54;;;;;;;16.95;8.73;;;;;;;18.35;64.41;100829.44;5012236;28;20030;-90
2021/09/04 06:38:20;;;;;;;23.88;9.88;;;;;;;18.33;64.16;100821.59;5012127;28;20017;-90
2021/09/04 06:40:46;;;;;;;15.68;8.50;;;;;;;18.30;64.50;100829.84;5012324;28;20034;-91
2021/09/04 06:43:11;;;;;;;18.33;8.90;;;;;;;18.17;64.71;100830.16;5012056;28;20037;-90
2021/09/04 06:45:36;;;;;;;16.45;8.02;;;;;;;18.54;63.64;100823.19;5011876;28;20092;-90
2021/09/04 06:48:02;;;;;;;18.67;8.27;;;;;;;18.25;64.41;100824.13;5011724;28;20021;-91
2021/09/04 06:50:27;;;;;;;19.50;8.10;;;;;;;18.67;63.52;100817.53;5012162;28;20029;-90
2021/09/04 06:52:53;;;;;;;21.88;8.63;;;;;;;19.01;62.46;100826.63;5011683;28;20105;-90
2021/09/04 06:55:18;;;;;;;16.77;9.00;;;;;;;19.27;61.34;100820.56;5012034;28;20116;-91
2021/09/04 06:57:44;;;;;;;16.15;7.63;;;;;;;19.45;60.67;100823.28;5010869;28;20057;-90
2021/09/04 07:00:10;;;;;;;14.80;7.80;;;;;;;19.97;59.46;100822.56;5008060;28;20034;-91
2021/09/04 07:02:36;;;;;;;12.40;7.65;;;;;;;19.93;58.93;100813.22;5011480;28;20037;-91
2021/09/04 07:05:02;;;;;;;12.68;7.72;;;;;;;20.25;58.19;100815.25;5011879;28;20100;-90
2021/09/04 07:07:27;;;;;;;17.35;8.13;;;;;;;20.18;58.23;100825.72;5015453;28;20038;-91
2021/09/04 07:09:52;;;;;;;16.23;8.50;;;;;;;20.45;57.60;100831.88;5012971;28;20049;-90
2021/09/04 07:12:18;;;;;;;13.48;7.70;;;;;;;20.31;57.76;100824.47;5004303;28;20056;-91
2021/09/04 07:14:43;;;;;;;14.88;8.63;;;;;;;20.30;57.93;100826.31;5015743;28;20026;-88
2021/09/04 07:17:08;;;;;;;14.65;7.70;;;;;;;20.09;58.40;100825.81;5000830;28;20042;-88
2021/09/04 07:19:34;;;;;;;16.65;8.70;;;;;;;20.26;57.87;100826.75;4997263;28;20564;-88
2021/09/04 07:21:59;;;;;;;14.48;8.15;;;;;;;20.01;58.03;100831.94;5014929;28;20104;-88
2021/09/04 07:24:25;;;;;;;14.48;7.78;;;;;;;20.12;58.01;100837.03;5015368;28;20036;-88
2021/09/04 07:26:50;;;;;;;14.73;8.05;;;;;;;20.38;57.73;100830.84;5015058;28;20080;-88
2021/09/04 07:29:15;;;;;;;13.18;7.40;;;;;;;20.33;57.76;100822.47;5014964;28;20032;-88
2021/09/04 07:31:41;;;;;;;12.23;7.07;;;;;;;20.50;57.43;100820.75;5014979;28;20025;-89
2021/09/04 07:34:06;;;;;;;15.38;7.38;;;;;;;20.18;58.28;100830.19;4997908;28;20589;-88
2021/09/04 07:36:32;;;;;;;18.80;9.05;;;;;;;20.02;58.48;100820.25;5013883;28;20022;-88
2021/09/04 07:38:57;;;;;;;15.57;8.32;;;;;;;19.96;59.06;100829.75;5014981;28;20025;-88
2021/09/04 07:41:22;;;;;;;21.10;8.40;;;;;;;20.08;58.61;100827.63;5015214;28;20114;-88
2021/09/04 07:43:48;;;;;;;14.15;7.72;;;;;;;20.06;58.35;100831.44;5015163;28;20038;-88
2021/09/04 07:46:13;;;;;;;14.55;7.97;;;;;;;20.37;57.91;100824.66;5015098;28;20026;-88
2021/09/04 07:48:38;;;;;;;14.20;7.90;;;;;;;20.72;57.39;100838.88;5014062;28;20030;-87
2021/09/04 07:51:04;;;;;;;19.60;8.77;;;;;;;20.98;56.12;100828.13;5014761;28;20034;-88
2021/09/04 07:53:29;;;;;;;15.38;8.07;;;;;;;21.32;55.31;100821.88;5014576;28;20022;-89
2021/09/04 07:55:54;;;;;;;15.55;7.80;;;;;;;21.50;54.62;100824.44;5014723;28;20038;-88
2021/09/04 07:58:20;;;;;;;12.88;8.13;;;;;;;21.68;54.00;100824.31;5009555;28;20092;-88
2021/09/04 08:00:45;;;;;;;16.60;7.75;;;;;;;22.18;53.23;100825.91;5024958;28;20029;-88
2021/09/04 08:03:11;;;;;;;18.60;8.18;;;;;;;22.25;52.37;100825.25;5013879;28;20045;-88
2021/09/04 08:05:36;;;;;;;16.10;7.95;;;;;;;23.11;50.71;100818.28;5014616;28;20026;-88
2021/09/04 08:08:02;;;;;;;14.18;7.80;;;;;;;24.01;48.40;100817.59;5006657;28;20025;-88
2021/09/04 08:10:27;;;;;;;13.40;7.47;;;;;;;24.58;46.86;100820.72;5014392;28;20026;-88
2021/09/04 08:12:53;;;;;;;13.43;8.15;;;;;;;24.83;45.63;100822.09;5014013;28;20037;-88
2021/09/04 08:15:18;;;;;;;16.45;7.05;;;;;;;25.68;45.06;100825.91;5014191;28;20022;-89
2021/09/04 08:17:44;;;;;;;12.32;6.88;;;;;;;26.08;43.64;100826.25;5012363;28;20121;-88
2021/09/04 08:20:10;;;;;;;11.65;6.57;;;;;;;26.89;42.29;100825.69;5013619;28;20022;-89
2021/09/04 08:22:35;;;;;;;11.10;6.88;;;;;;;27.32;40.08;100821.06;5002217;28;20113;-89
2021/09/04 08:25:01;;;;;;;12.50;5.90;;;;;;;27.39;40.12;100838.06;5007898;28;20105;-90
2021/09/04 08:27:26;;;;;;;16.50;6.75;;;;;;;27.57;40.41;100835.63;5013875;28;20385;-90
2021/09/04 08:29:52;;;;;;;12.55;6.57;;;;;;;28.08;38.48;100828.78;5002034;28;20034;-88
2021/09/04 08:32:17;;;;;;;11.00;6.18;;;;;;;28.49;37.72;100833.91;5014027;28;20065;-88
2021/09/04 08:34:42;;;;;;;10.90;6.57;;;;;;;28.41;38.30;100836.84;5014022;28;20029;-90
2021/09/04 08:37:08;;;;;;;10.65;5.88;;;;;;;28.46;37.35;100830.81;5013976;28;20030;-90
2021/09/04 08:39:33;;;;;;;14.45;6.68;;;;;;;28.61;36.99;100844.09;5010680;28;20026;-90
2021/09/04 08:41:59;;;;;;;10.45;6.00;;;;;;;28.90;36.40;100836.50;5013705;28;20543;-90
2021/09/04 08:44:26;;;;;;;17.77;6.45;;;;;;;28.79;36.12;100832.59;5013848;28;20072;-91
2021/09/04 08:46:51;;;;;;;13.43;7.20;;;;;;;29.05;36.42;100834.34;5013476;28;20040;-90
2021/09/04 08:49:18;;;;;;;13.80;5.90;;;;;;;30.10;35.04;100827.59;5013240;28;20101;-91
2021/09/04 08:51:44;;;;;;;16.15;7.03;;;;;;;30.29;35.26;100826.53;5012486;28;20018;-89
2021/09/04 08:54:09;;;;;;;13.15;5.75;;;;;;;30.86;34.60;100826.34;5013893;28;20448;-89
2021/09/04 08:56:35;;;;;;;9.88;5.82;;;;;;;31.40;33.80;100837.31;5010434;28;20471;-91
2021/09/04 08:59:00;;;;;;;10.00;6.00;;;;;;;31.46;33.94;100838.28;5013382;28;20036;-91
2021/09/04 09:01:28;;;;;;;10.70;6.38;;;;;;;31.77;33.04;100831.72;5013164;28;20100;-91
2021/09/04 09:03:56;;;;;;;12.48;6.20;;;;;;;31.81;32.42;100830.19;5010046;28;20021;-91
2021/09/04 09:06:38;;;;;;;10.13;5.80;;;;;;;31.94;32.14;100829.16;5013451;28;20034;-90
2021/09/04 09:09:25;;;;;;;11.32;6.35;;;;;;;31.86;31.99;100830.31;4993980;28;20047;-91
2021/09/04 09:11:53;;;;;;;11.75;6.78;;;;;;;31.60;31.80;100835.13;4996333;28;20395;-90
2021/09/04 09:14:19;;;;;;;10.65;6.75;;;;;;;31.56;32.34;100839.38;5013587;28;20479;-91
2021/09/04 09:17:03;;;;;;;10.85;6.95;;;;;;;31.31;32.04;100844.94;5013179;28;20026;-90
2021/09/04 09:19:37;;;;;;;12.40;6.85;;;;;;;31.57;32.04;100843.72;5006256;28;20627;-90
2021/09/04 09:22:12;;;;;;;11.90;6.35;;;;;;;31.61;32.27;100844.09;5012908;28;20026;-92
2021/09/04 09:24:37;;;;;;;10.95;6.65;;;;;;;31.57;32.11;100846.44;5013267;28;20064;-91
2021/09/04 09:27:02;;;;;;;14.27;6.57;;;;;;;32.35;31.87;100840.97;5013031;28;20049;-91
2021/09/04 09:29:32;;;;;;;12.57;6.95;;;;;;;31.93;32.08;100852.78;5012707;28;20029;-90
2021/09/04 09:32:03;;;;;;;12.13;6.75;;;;;;;31.73;32.62;100842.22;5012718;28;20034;-91
2021/09/04 09:34:29;;;;;;;;;;;;;;;32.38;31.16;100844.00;5013765;28;20100;-91
2021/09/04 09:36:59;;;;;;;12.95;8.23;;;;;;;31.84;32.95;100843.31;5013356;28;19972;-90
2021/09/04 09:39:29;;;;;;;15.07;7.82;;;;;;;31.66;32.86;100840.69;5013138;28;20033;-89
2021/09/04 09:41:56;;;;;;;13.27;7.45;;;;;;;31.76;31.80;100849.09;5012842;28;20105;-90
2021/09/04 09:44:24;;;;;;;14.48;8.20;;;;;;;31.68;32.33;100849.44;5013081;28;20088;-90
2021/09/04 09:46:55;;;;;;;14.85;8.15;;;;;;;31.80;32.54;100842.13;5012636;28;20460;-90
2021/09/04 09:49:33;;;;;;;13.20;7.25;;;;;;;32.20;32.05;100846.88;5012921;28;20034;-91
2021/09/04 09:52:01;;;;;;;14.55;9.02;;;;;;;31.74;32.43;100849.31;5013390;28;20484;-89
2021/09/04 09:54:30;;;;;;;12.20;8.20;;;;;;;31.41;32.60;100839.78;5022877;28;20041;-91
2021/09/04 09:56:56;;;;;;;11.93;7.90;;;;;;;31.74;32.25;100846.59;5012748;28;20473;-90
2021/09/04 09:59:26;;;;;;;12.82;7.85;;;;;;;31.89;32.73;100842.59;5012865;28;20037;-90
2021/09/04 10:01:52;;;;;;;11.45;7.35;;;;;;;32.21;32.44;100830.34;5012624;28;20032;-90
2021/09/04 10:04:19;;;;;;;16.38;7.60;;;;;;;32.31;32.27;100837.91;5012765;28;20116;-90
2021/09/04 10:06:44;;;;;;;14.02;7.80;;;;;;;32.69;32.24;100843.88;4994711;28;20092;-92
2021/09/04 10:09:11;;;;;;;13.85;7.57;;;;;;;32.83;31.43;100844.44;4994866;28;20034;-91
2021/09/04 10:11:38;;;;;;;15.20;7.88;;;;;;;32.44;31.40;100831.38;5012274;28;20101;-91
2021/09/04 10:14:04;;;;;;;14.65;8.73;;;;;;;32.04;31.93;100837.56;5012448;28;20108;-91
2021/09/04 10:16:30;;;;;;;11.73;7.38;;;;;;;32.76;31.12;100828.25;5012334;28;20109;-90
2021/09/04 10:18:56;;;;;;;11.60;7.22;;;;;;;32.74;30.38;100831.22;5012416;28;20117;-91
2021/09/04 10:21:26;;;;;;;11.73;7.22;;;;;;;33.12;29.72;100824.34;5012546;28;20025;-91
2021/09/04 10:23:53;;;;;;;13.32;7.18;;;;;;;33.28;30.02;100825.44;5012136;28;20029;-90
2021/09/04 10:26:31;;;;;;;13.60;7.20;;;;;;;33.34;30.41;100823.66;5012404;28;20025;-91
2021/09/04 10:29:07;;;;;;;13.13;7.68;;;;;;;33.72;29.35;100822.94;5012000;28;20033;-90
2021/09/04 10:31:52;;;;;;;11.55;6.72;;;;;;;33.88;29.20;100820.44;5012184;28;20041;-91
2021/09/04 10:34:31;;;;;;;12.48;7.03;;;;;;;34.00;28.74;100820.34;4998250;28;20100;-90
2021/09/04 10:37:01;;;;;;;17.52;8.23;;;;;;;34.05;29.17;100823.16;5012623;28;20034;-90
2021/09/04 10:39:59;;;;;;;11.68;7.47;;;;;;;34.24;29.46;100821.00;5016016;28;20025;-89
2021/09/04 10:42:27;;;;;;;12.90;6.85;;;;;;;34.00;29.42;100806.72;5015129;28;20120;-89
2021/09/04 10:44:58;;;;;;;13.93;7.97;;;;;;;34.19;29.48;100802.69;5012185;28;20034;-90
2021/09/04 10:47:23;;;;;;;12.75;7.38;;;;;;;34.29;28.76;100808.25;5011941;28;20033;-89
2021/09/04 10:49:52;;;;;;;11.13;7.45;;;;;;;34.23;28.66;100801.09;5011954;28;20033;-91
2021/09/04 10:52:43;;;;;;;10.32;6.35;;;;;;;34.34;28.73;100799.31;5011894;28;20510;-90
2021/09/04 10:55:20;;;;;;;10.95;7.22;;;;;;;34.30;28.58;100812.66;5011938;28;20028;-89
2021/09/04 10:57:50;;;;;;;11.02;6.25;;;;;;;34.52;28.47;100801.75;5011750;28;20160;-89
2021/09/04 11:00:24;;;;;;;11.85;7.32;;;;;;;34.62;27.50;100794.75;5008005;28;20027;-89
2021/09/04 11:02:53;;;;;;;10.32;6.10;;;;;;;34.80;28.45;100793.59;5011493;28;20036;-90
2021/09/04 11:05:52;;;;;;;11.98;6.72;;;;;;;35.04;26.63;100780.50;5014416;28;20456;-93
2021/09/04 11:08:20;;;;;;;10.27;6.18;;;;;;;35.35;26.58;100787.09;5008395;28;20116;-90
2021/09/04 11:11:07;;;;;;;9.57;5.78;;;;;;;35.76;26.74;100792.84;4990179;28;20022;-91